sensor_id;sensor_type;location;lat;lon;timestamp;pressure;altitude;pressure_sealevel;temperature;humidity
60417;BME280;46263;44.726;10.396;2023-12-20T00:02:11;100617.56;;;9.91;60.09
60417;BME280;46263;44.726;10.396;2023-12-20T00:04:36;100614.25;;;9.92;60.02
60417;BME280;46263;44.726;10.396;2023-12-20T00:07:01;100609.22;;;9.85;59.76
60417;BME280;46263;44.726;10.396;2023-12-20T00:09:27;100611.28;;;9.68;60.25
60417;BME280;46263;44.726;10.396;2023-12-20T00:11:52;100610.75;;;9.86;59.91
60417;BME280;46263;44.726;10.396;2023-12-20T00:14:18;100601.56;;;9.97;59.50
60417;BME280;46263;44.726;10.396;2023-12-20T00:16:43;100599.31;;;9.90;59.71
60417;BME280;46263;44.726;10.396;2023-12-20T00:19:08;100591.94;;;9.98;59.33
60417;BME280;46263;44.726;10.396;2023-12-20T00:21:34;100585.78;;;10.16;59.26
60417;BME280;46263;44.726;10.396;2023-12-20T00:23:59;100572.28;;;10.25;59.04
60417;BME280;46263;44.726;10.396;2023-12-20T00:26:25;100564.63;;;10.31;58.46
60417;BME280;46263;44.726;10.396;2023-12-20T00:28:50;100564.41;;;10.24;58.58
60417;BME280;46263;44.726;10.396;2023-12-20T00:31:16;100562.09;;;10.28;58.22
60417;BME280;46263;44.726;10.396;2023-12-20T00:33:41;100553.81;;;10.17;58.93
60417;BME280;46263;44.726;10.396;2023-12-20T00:36:09;100550.22;;;10.22;58.54
60417;BME280;46263;44.726;10.396;2023-12-20T00:38:35;100547.91;;;10.26;58.55
60417;BME280;46263;44.726;10.396;2023-12-20T00:43:44;100544.28;;;9.85;58.66
60417;BME280;46263;44.726;10.396;2023-12-20T00:46:10;100543.50;;;9.79;59.03
60417;BME280;46263;44.726;10.396;2023-12-20T00:48:35;100537.63;;;9.93;59.11
60417;BME280;46263;44.726;10.396;2023-12-20T00:51:00;100540.84;;;10.14;58.78
60417;BME280;46263;44.726;10.396;2023-12-20T00:53:26;100534.19;;;10.22;58.62
60417;BME280;46263;44.726;10.396;2023-12-20T00:55:51;100533.94;;;10.26;58.63
60417;BME280;46263;44.726;10.396;2023-12-20T00:58:17;100529.63;;;10.25;58.33
60417;BME280;46263;44.726;10.396;2023-12-20T01:00:42;100518.50;;;10.19;58.78
60417;BME280;46263;44.726;10.396;2023-12-20T01:03:09;100521.00;;;10.23;58.43
60417;BME280;46263;44.726;10.396;2023-12-20T01:05:34;100507.56;;;10.21;58.45
60417;BME280;46263;44.726;10.396;2023-12-20T01:07:59;100512.72;;;10.06;58.93
60417;BME280;46263;44.726;10.396;2023-12-20T01:10:25;100505.41;;;9.92;59.23
60417;BME280;46263;44.726;10.396;2023-12-20T01:12:53;100499.06;;;9.92;59.83
60417;BME280;46263;44.726;10.396;2023-12-20T01:15:18;100502.88;;;9.89;59.86
60417;BME280;46263;44.726;10.396;2023-12-20T01:17:44;100511.84;;;9.65;59.62
60417;BME280;46263;44.726;10.396;2023-12-20T01:20:09;100508.06;;;9.63;60.00
60417;BME280;46263;44.726;10.396;2023-12-20T01:22:35;100510.88;;;9.57;60.26
60417;BME280;46263;44.726;10.396;2023-12-20T01:25:01;100507.16;;;9.22;60.73
60417;BME280;46263;44.726;10.396;2023-12-20T01:27:27;100497.25;;;9.43;60.03
60417;BME280;46263;44.726;10.396;2023-12-20T01:29:53;100497.16;;;9.59;59.37
60417;BME280;46263;44.726;10.396;2023-12-20T01:32:18;100499.56;;;9.28;60.20
60417;BME280;46263;44.726;10.396;2023-12-20T01:34:43;100489.34;;;9.47;59.94
60417;BME280;46263;44.726;10.396;2023-12-20T01:37:09;100491.22;;;9.23;60.70
60417;BME280;46263;44.726;10.396;2023-12-20T01:39:34;100491.69;;;9.27;60.69
60417;BME280;46263;44.726;10.396;2023-12-20T01:42:00;100478.72;;;9.40;60.51
60417;BME280;46263;44.726;10.396;2023-12-20T01:44:25;100478.78;;;9.18;61.04
60417;BME280;46263;44.726;10.396;2023-12-20T01:46:51;100475.81;;;9.00;61.05
60417;BME280;46263;44.726;10.396;2023-12-20T01:49:17;100478.00;;;9.23;60.96
60417;BME280;46263;44.726;10.396;2023-12-20T01:51:43;100479.28;;;9.22;60.89
60417;BME280;46263;44.726;10.396;2023-12-20T01:54:09;100468.94;;;9.06;61.39
60417;BME280;46263;44.726;10.396;2023-12-20T01:56:35;100474.78;;;8.97;61.66
60417;BME280;46263;44.726;10.396;2023-12-20T01:59:01;100460.28;;;9.15;60.82
60417;BME280;46263;44.726;10.396;2023-12-20T02:01:27;100464.41;;;9.03;61.32
60417;BME280;46263;44.726;10.396;2023-12-20T02:03:53;100449.72;;;8.86;61.97
60417;BME280;46263;44.726;10.396;2023-12-20T02:06:21;100454.25;;;8.89;61.57
60417;BME280;46263;44.726;10.396;2023-12-20T02:08:49;100455.75;;;9.12;61.32
60417;BME280;46263;44.726;10.396;2023-12-20T02:11:15;100457.75;;;9.17;61.26
60417;BME280;46263;44.726;10.396;2023-12-20T02:13:40;100455.44;;;9.32;61.11
60417;BME280;46263;44.726;10.396;2023-12-20T02:16:06;100448.34;;;9.31;60.79
60417;BME280;46263;44.726;10.396;2023-12-20T02:18:33;100441.75;;;9.29;60.40
60417;BME280;46263;44.726;10.396;2023-12-20T02:20:58;100444.50;;;9.40;60.03
60417;BME280;46263;44.726;10.396;2023-12-20T02:23:23;100451.34;;;9.44;60.55
60417;BME280;46263;44.726;10.396;2023-12-20T02:25:49;100436.25;;;9.12;61.05
60417;BME280;46263;44.726;10.396;2023-12-20T02:28:14;100436.78;;;8.94;61.40
60417;BME280;46263;44.726;10.396;2023-12-20T02:30:40;100437.78;;;8.91;61.75
60417;BME280;46263;44.726;10.396;2023-12-20T02:33:08;100442.59;;;9.02;61.79
60417;BME280;46263;44.726;10.396;2023-12-20T02:35:36;100425.34;;;9.09;61.52
60417;BME280;46263;44.726;10.396;2023-12-20T02:38:02;100433.72;;;9.03;60.84
60417;BME280;46263;44.726;10.396;2023-12-20T02:40:27;100429.97;;;8.84;61.62
60417;BME280;46263;44.726;10.396;2023-12-20T02:42:52;100437.78;;;9.02;61.11
60417;BME280;46263;44.726;10.396;2023-12-20T02:45:18;100445.34;;;9.24;60.44
60417;BME280;46263;44.726;10.396;2023-12-20T02:47:43;100445.09;;;9.11;61.05
60417;BME280;46263;44.726;10.396;2023-12-20T02:50:09;100457.06;;;8.57;61.35
60417;BME280;46263;44.726;10.396;2023-12-20T02:52:34;100466.19;;;8.41;62.04
60417;BME280;46263;44.726;10.396;2023-12-20T02:55:00;100470.00;;;8.32;61.89
60417;BME280;46263;44.726;10.396;2023-12-20T02:57:25;100470.25;;;8.40;62.09
60417;BME280;46263;44.726;10.396;2023-12-20T02:59:50;100458.34;;;8.61;61.32
60417;BME280;46263;44.726;10.396;2023-12-20T03:02:16;100454.81;;;8.66;61.43
60417;BME280;46263;44.726;10.396;2023-12-20T03:04:41;100457.34;;;8.64;61.64
60417;BME280;46263;44.726;10.396;2023-12-20T03:07:06;100454.28;;;8.73;61.48
60417;BME280;46263;44.726;10.396;2023-12-20T03:09:32;100447.19;;;8.67;61.94
60417;BME280;46263;44.726;10.396;2023-12-20T03:11:57;100445.94;;;8.62;61.97
60417;BME280;46263;44.726;10.396;2023-12-20T03:14:23;100435.81;;;8.75;61.86
60417;BME280;46263;44.726;10.396;2023-12-20T03:16:51;100440.59;;;8.91;61.68
60417;BME280;46263;44.726;10.396;2023-12-20T03:19:18;100425.59;;;9.05;60.55
60417;BME280;46263;44.726;10.396;2023-12-20T03:21:44;100412.66;;;9.13;60.67
60417;BME280;46263;44.726;10.396;2023-12-20T03:24:10;100411.16;;;9.12;59.99
60417;BME280;46263;44.726;10.396;2023-12-20T03:26:35;100407.59;;;9.06;60.43
60417;BME280;46263;44.726;10.396;2023-12-20T03:29:01;100404.63;;;8.93;60.89
60417;BME280;46263;44.726;10.396;2023-12-20T03:31:26;100396.25;;;8.93;61.17
60417;BME280;46263;44.726;10.396;2023-12-20T03:33:51;100392.94;;;9.00;60.90
60417;BME280;46263;44.726;10.396;2023-12-20T03:36:19;100393.38;;;9.15;60.30
60417;BME280;46263;44.726;10.396;2023-12-20T03:38:44;100379.16;;;9.24;59.99
60417;BME280;46263;44.726;10.396;2023-12-20T03:41:11;100383.19;;;9.29;59.86
60417;BME280;46263;44.726;10.396;2023-12-20T03:43:36;100364.00;;;9.09;60.78
60417;BME280;46263;44.726;10.396;2023-12-20T03:46:03;100363.22;;;9.19;60.51
60417;BME280;46263;44.726;10.396;2023-12-20T03:48:29;100358.63;;;9.27;60.37
60417;BME280;46263;44.726;10.396;2023-12-20T03:50:55;100352.09;;;9.14;60.33
60417;BME280;46263;44.726;10.396;2023-12-20T03:53:20;100348.06;;;9.04;60.87
60417;BME280;46263;44.726;10.396;2023-12-20T03:55:45;100333.34;;;9.09;60.44
60417;BME280;46263;44.726;10.396;2023-12-20T03:58:11;100327.44;;;9.23;59.96
60417;BME280;46263;44.726;10.396;2023-12-20T04:00:36;100328.44;;;9.31;60.15
60417;BME280;46263;44.726;10.396;2023-12-20T04:03:02;100329.66;;;9.36;59.08
60417;BME280;46263;44.726;10.396;2023-12-20T04:05:27;100325.88;;;9.39;59.81
60417;BME280;46263;44.726;10.396;2023-12-20T04:07:53;100326.34;;;9.37;59.68
60417;BME280;46263;44.726;10.396;2023-12-20T04:10:18;100327.94;;;9.33;59.54
60417;BME280;46263;44.726;10.396;2023-12-20T04:12:43;100317.28;;;9.31;59.41
60417;BME280;46263;44.726;10.396;2023-12-20T04:15:09;100315.59;;;9.17;59.34
60417;BME280;46263;44.726;10.396;2023-12-20T04:17:35;100329.19;;;8.75;60.72
60417;BME280;46263;44.726;10.396;2023-12-20T04:20:01;100324.91;;;8.58;61.56
60417;BME280;46263;44.726;10.396;2023-12-20T04:22:27;100327.63;;;8.85;61.88
60417;BME280;46263;44.726;10.396;2023-12-20T04:24:52;100328.69;;;8.66;61.66
60417;BME280;46263;44.726;10.396;2023-12-20T04:27:18;100323.97;;;8.39;62.20
60417;BME280;46263;44.726;10.396;2023-12-20T04:29:43;100323.91;;;8.50;61.99
60417;BME280;46263;44.726;10.396;2023-12-20T04:32:08;100323.97;;;8.11;63.36
60417;BME280;46263;44.726;10.396;2023-12-20T04:34:34;100315.09;;;8.35;62.79
60417;BME280;46263;44.726;10.396;2023-12-20T04:36:59;100316.88;;;8.05;63.61
60417;BME280;46263;44.726;10.396;2023-12-20T04:39:26;100314.59;;;7.82;64.26
60417;BME280;46263;44.726;10.396;2023-12-20T04:41:52;100323.19;;;7.78;64.69
60417;BME280;46263;44.726;10.396;2023-12-20T04:44:18;100322.44;;;7.72;65.02
60417;BME280;46263;44.726;10.396;2023-12-20T04:46:43;100319.63;;;7.45;66.17
60417;BME280;46263;44.726;10.396;2023-12-20T04:49:08;100318.84;;;7.33;67.35
60417;BME280;46263;44.726;10.396;2023-12-20T04:51:34;100314.31;;;7.41;67.07
60417;BME280;46263;44.726;10.396;2023-12-20T04:54:00;100312.06;;;7.67;66.07
60417;BME280;46263;44.726;10.396;2023-12-20T04:56:25;100315.34;;;7.88;65.22
60417;BME280;46263;44.726;10.396;2023-12-20T04:58:51;100314.09;;;8.10;64.20
60417;BME280;46263;44.726;10.396;2023-12-20T05:01:16;100303.97;;;8.13;63.85
60417;BME280;46263;44.726;10.396;2023-12-20T05:03:42;100307.25;;;7.95;64.63
60417;BME280;46263;44.726;10.396;2023-12-20T05:06:07;100306.22;;;8.09;64.75
60417;BME280;46263;44.726;10.396;2023-12-20T05:08:33;100306.00;;;8.34;63.99
60417;BME280;46263;44.726;10.396;2023-12-20T05:10:58;100307.97;;;8.56;63.54
60417;BME280;46263;44.726;10.396;2023-12-20T05:13:23;100310.72;;;8.61;63.71
60417;BME280;46263;44.726;10.396;2023-12-20T05:15:49;100318.56;;;8.68;63.30
60417;BME280;46263;44.726;10.396;2023-12-20T05:18:14;100327.94;;;8.71;63.03
60417;BME280;46263;44.726;10.396;2023-12-20T05:20:40;100331.47;;;8.66;63.14
60417;BME280;46263;44.726;10.396;2023-12-20T05:23:06;100328.94;;;8.68;63.06
60417;BME280;46263;44.726;10.396;2023-12-20T05:25:32;100326.41;;;8.75;62.71
60417;BME280;46263;44.726;10.396;2023-12-20T05:27:57;100316.78;;;8.76;63.05
60417;BME280;46263;44.726;10.396;2023-12-20T05:30:23;100309.88;;;8.93;62.91
60417;BME280;46263;44.726;10.396;2023-12-20T05:32:48;100293.91;;;8.88;62.34
60417;BME280;46263;44.726;10.396;2023-12-20T05:35:14;100315.72;;;8.84;62.57
60417;BME280;46263;44.726;10.396;2023-12-20T05:37:40;100299.81;;;8.74;63.20
60417;BME280;46263;44.726;10.396;2023-12-20T05:40:06;100290.13;;;8.86;62.80
60417;BME280;46263;44.726;10.396;2023-12-20T05:42:35;100300.06;;;8.71;62.72
60417;BME280;46263;44.726;10.396;2023-12-20T05:45:01;100309.91;;;8.77;62.16
60417;BME280;46263;44.726;10.396;2023-12-20T05:47:26;100306.41;;;8.66;62.45
60417;BME280;46263;44.726;10.396;2023-12-20T05:49:52;100316.06;;;8.59;62.63
60417;BME280;46263;44.726;10.396;2023-12-20T05:52:18;100322.63;;;8.67;62.20
60417;BME280;46263;44.726;10.396;2023-12-20T05:54:43;100318.81;;;8.65;62.48
60417;BME280;46263;44.726;10.396;2023-12-20T05:57:09;100312.28;;;8.51;62.61
60417;BME280;46263;44.726;10.396;2023-12-20T05:59:34;100298.66;;;8.37;62.90
60417;BME280;46263;44.726;10.396;2023-12-20T06:01:59;100305.19;;;8.56;63.22
60417;BME280;46263;44.726;10.396;2023-12-20T06:04:25;100295.50;;;8.78;62.83
60417;BME280;46263;44.726;10.396;2023-12-20T06:06:50;100295.44;;;8.89;62.16
60417;BME280;46263;44.726;10.396;2023-12-20T06:09:16;100289.09;;;8.89;62.23
60417;BME280;46263;44.726;10.396;2023-12-20T06:11:42;100287.44;;;8.64;62.90
60417;BME280;46263;44.726;10.396;2023-12-20T06:14:09;100295.53;;;8.68;63.16
60417;BME280;46263;44.726;10.396;2023-12-20T06:16:34;100297.78;;;8.69;63.82
60417;BME280;46263;44.726;10.396;2023-12-20T06:18:59;100291.38;;;8.90;62.95
60417;BME280;46263;44.726;10.396;2023-12-20T06:21:25;100292.84;;;9.02;62.78
60417;BME280;46263;44.726;10.396;2023-12-20T06:23:50;100286.31;;;8.94;62.57
60417;BME280;46263;44.726;10.396;2023-12-20T06:26:16;100278.00;;;8.72;63.71
60417;BME280;46263;44.726;10.396;2023-12-20T06:28:41;100276.19;;;8.86;63.36
60417;BME280;46263;44.726;10.396;2023-12-20T06:31:06;100280.47;;;8.98;63.57
60417;BME280;46263;44.726;10.396;2023-12-20T06:33:32;100276.56;;;9.12;63.32
60417;BME280;46263;44.726;10.396;2023-12-20T06:35:57;100269.19;;;9.20;63.00
60417;BME280;46263;44.726;10.396;2023-12-20T06:38:23;100262.38;;;9.10;63.18
60417;BME280;46263;44.726;10.396;2023-12-20T06:40:48;100263.06;;;9.27;62.75
60417;BME280;46263;44.726;10.396;2023-12-20T06:43:13;100258.94;;;9.39;62.55
60417;BME280;46263;44.726;10.396;2023-12-20T06:45:39;100257.13;;;9.41;63.25
60417;BME280;46263;44.726;10.396;2023-12-20T06:48:05;100271.53;;;9.45;62.02
60417;BME280;46263;44.726;10.396;2023-12-20T06:50:30;100271.13;;;9.30;62.78
60417;BME280;46263;44.726;10.396;2023-12-20T06:52:56;100275.47;;;9.26;63.08
60417;BME280;46263;44.726;10.396;2023-12-20T06:55:22;100277.09;;;9.10;62.97
60417;BME280;46263;44.726;10.396;2023-12-20T06:57:48;100267.25;;;9.04;63.98
60417;BME280;46263;44.726;10.396;2023-12-20T07:00:14;100271.56;;;8.99;63.98
60417;BME280;46263;44.726;10.396;2023-12-20T07:02:39;100272.06;;;9.03;63.70
60417;BME280;46263;44.726;10.396;2023-12-20T07:05:05;100271.00;;;9.12;63.66
60417;BME280;46263;44.726;10.396;2023-12-20T07:07:31;100272.75;;;9.20;63.16
60417;BME280;46263;44.726;10.396;2023-12-20T07:09:57;100275.16;;;9.35;63.04
60417;BME280;46263;44.726;10.396;2023-12-20T07:12:22;100294.59;;;9.51;63.71
60417;BME280;46263;44.726;10.396;2023-12-20T07:14:48;100293.00;;;9.61;63.42
60417;BME280;46263;44.726;10.396;2023-12-20T07:17:13;100291.41;;;9.71;62.55
60417;BME280;46263;44.726;10.396;2023-12-20T07:19:41;100295.41;;;9.75;62.93
60417;BME280;46263;44.726;10.396;2023-12-20T07:22:06;100307.56;;;9.78;62.79
60417;BME280;46263;44.726;10.396;2023-12-20T07:24:32;100314.22;;;9.75;63.87
60417;BME280;46263;44.726;10.396;2023-12-20T07:27:01;100310.84;;;9.82;63.35
60417;BME280;46263;44.726;10.396;2023-12-20T07:29:27;100305.28;;;9.82;62.83
60417;BME280;46263;44.726;10.396;2023-12-20T07:31:53;100314.31;;;9.93;63.47
60417;BME280;46263;44.726;10.396;2023-12-20T07:34:20;100321.16;;;9.98;61.88
60417;BME280;46263;44.726;10.396;2023-12-20T07:36:45;100317.84;;;9.94;62.09
60417;BME280;46263;44.726;10.396;2023-12-20T07:39:11;100318.63;;;10.00;62.03
60417;BME280;46263;44.726;10.396;2023-12-20T07:41:36;100323.44;;;9.94;62.86
60417;BME280;46263;44.726;10.396;2023-12-20T07:44:03;100320.75;;;9.83;62.63
60417;BME280;46263;44.726;10.396;2023-12-20T07:46:29;100322.03;;;9.82;62.77
60417;BME280;46263;44.726;10.396;2023-12-20T07:48:54;100311.06;;;9.89;62.69
60417;BME280;46263;44.726;10.396;2023-12-20T07:51:20;100313.03;;;10.00;62.97
60417;BME280;46263;44.726;10.396;2023-12-20T07:53:46;100317.09;;;9.93;63.11
60417;BME280;46263;44.726;10.396;2023-12-20T07:56:16;100321.41;;;9.94;63.38
60417;BME280;46263;44.726;10.396;2023-12-20T07:58:41;100331.75;;;10.05;63.31
60417;BME280;46263;44.726;10.396;2023-12-20T08:01:07;100339.31;;;10.10;63.27
60417;BME280;46263;44.726;10.396;2023-12-20T08:03:32;100340.75;;;10.22;63.02
60417;BME280;46263;44.726;10.396;2023-12-20T08:05:58;100332.88;;;10.26;63.10
60417;BME280;46263;44.726;10.396;2023-12-20T08:08:25;100333.31;;;10.30;63.56
60417;BME280;46263;44.726;10.396;2023-12-20T08:10:50;100330.44;;;10.40;63.58
60417;BME280;46263;44.726;10.396;2023-12-20T08:13:15;100329.06;;;10.47;63.15
60417;BME280;46263;44.726;10.396;2023-12-20T08:15:41;100334.06;;;10.30;63.31
60417;BME280;46263;44.726;10.396;2023-12-20T08:18:06;100338.31;;;10.36;64.63
60417;BME280;46263;44.726;10.396;2023-12-20T08:20:34;100335.94;;;10.46;63.89
60417;BME280;46263;44.726;10.396;2023-12-20T08:23:00;100341.97;;;10.55;63.87
60417;BME280;46263;44.726;10.396;2023-12-20T08:25:26;100332.63;;;10.24;65.05
60417;BME280;46263;44.726;10.396;2023-12-20T08:27:52;100334.34;;;10.27;65.41
60417;BME280;46263;44.726;10.396;2023-12-20T08:30:18;100339.88;;;10.32;64.69
60417;BME280;46263;44.726;10.396;2023-12-20T08:32:49;100341.31;;;10.44;64.18
60417;BME280;46263;44.726;10.396;2023-12-20T08:35:15;100334.16;;;10.48;63.54
60417;BME280;46263;44.726;10.396;2023-12-20T08:37:40;100344.72;;;10.32;65.23
60417;BME280;46263;44.726;10.396;2023-12-20T08:40:06;100336.28;;;10.13;65.52
60417;BME280;46263;44.726;10.396;2023-12-20T08:42:31;100334.22;;;10.14;65.39
60417;BME280;46263;44.726;10.396;2023-12-20T08:44:57;100337.50;;;10.18;64.75
60417;BME280;46263;44.726;10.396;2023-12-20T08:47:24;100339.16;;;10.32;64.49
60417;BME280;46263;44.726;10.396;2023-12-20T08:49:49;100347.47;;;10.37;64.56
60417;BME280;46263;44.726;10.396;2023-12-20T08:52:14;100353.78;;;10.43;64.21
60417;BME280;46263;44.726;10.396;2023-12-20T08:54:40;100355.63;;;10.59;63.92
60417;BME280;46263;44.726;10.396;2023-12-20T08:57:05;100355.75;;;10.72;64.12
60417;BME280;46263;44.726;10.396;2023-12-20T08:59:32;100346.91;;;10.68;63.38
60417;BME280;46263;44.726;10.396;2023-12-20T09:01:58;100348.13;;;10.72;63.55
60417;BME280;46263;44.726;10.396;2023-12-20T09:04:23;100347.84;;;10.76;63.72
60417;BME280;46263;44.726;10.396;2023-12-20T09:06:49;100335.25;;;10.88;62.79
60417;BME280;46263;44.726;10.396;2023-12-20T09:09:14;100336.16;;;10.96;63.05
60417;BME280;46263;44.726;10.396;2023-12-20T09:11:40;100339.50;;;10.94;62.50
60417;BME280;46263;44.726;10.396;2023-12-20T09:14:05;100345.63;;;10.93;62.08
60417;BME280;46263;44.726;10.396;2023-12-20T09:16:31;100341.16;;;11.03;62.25
60417;BME280;46263;44.726;10.396;2023-12-20T09:18:57;100333.53;;;11.03;62.42
60417;BME280;46263;44.726;10.396;2023-12-20T09:21:23;100329.31;;;11.15;62.78
60417;BME280;46263;44.726;10.396;2023-12-20T09:23:48;100329.19;;;11.26;63.36
60417;BME280;46263;44.726;10.396;2023-12-20T09:26:14;100325.28;;;11.34;62.60
60417;BME280;46263;44.726;10.396;2023-12-20T09:28:40;100320.34;;;11.40;62.76
60417;BME280;46263;44.726;10.396;2023-12-20T09:31:05;100311.56;;;11.49;62.74
60417;BME280;46263;44.726;10.396;2023-12-20T09:33:32;100316.41;;;11.49;62.31
60417;BME280;46263;44.726;10.396;2023-12-20T09:35:57;100310.53;;;11.52;61.59
60417;BME280;46263;44.726;10.396;2023-12-20T09:38:23;100308.78;;;11.49;62.26
60417;BME280;46263;44.726;10.396;2023-12-20T09:40:48;100306.59;;;11.61;62.42
60417;BME280;46263;44.726;10.396;2023-12-20T09:43:14;100301.06;;;11.55;62.87
60417;BME280;46263;44.726;10.396;2023-12-20T09:45:42;100301.22;;;11.63;62.16
60417;BME280;46263;44.726;10.396;2023-12-20T09:48:11;100303.56;;;11.59;62.52
60417;BME280;46263;44.726;10.396;2023-12-20T09:50:37;100293.56;;;11.45;62.59
60417;BME280;46263;44.726;10.396;2023-12-20T09:53:04;100290.53;;;11.61;61.56
60417;BME280;46263;44.726;10.396;2023-12-20T09:55:30;100295.41;;;11.61;61.88
60417;BME280;46263;44.726;10.396;2023-12-20T09:57:57;100283.03;;;11.69;62.17
60417;BME280;46263;44.726;10.396;2023-12-20T10:00:23;100287.34;;;11.70;61.92
60417;BME280;46263;44.726;10.396;2023-12-20T10:05:17;100267.69;;;11.89;60.70
60417;BME280;46263;44.726;10.396;2023-12-20T10:07:48;100269.78;;;12.01;60.61
60417;BME280;46263;44.726;10.396;2023-12-20T10:10:14;100262.25;;;12.09;60.49
60417;BME280;46263;44.726;10.396;2023-12-20T10:12:40;100259.91;;;12.13;60.03
60417;BME280;46263;44.726;10.396;2023-12-20T10:15:06;100254.22;;;12.18;60.16
60417;BME280;46263;44.726;10.396;2023-12-20T10:17:31;100254.31;;;12.26;60.48
60417;BME280;46263;44.726;10.396;2023-12-20T10:19:57;100261.66;;;12.29;59.34
60417;BME280;46263;44.726;10.396;2023-12-20T10:22:23;100259.28;;;12.33;59.42
60417;BME280;46263;44.726;10.396;2023-12-20T10:24:49;100252.06;;;12.37;60.12
60417;BME280;46263;44.726;10.396;2023-12-20T10:27:14;100247.88;;;12.31;61.16
60417;BME280;46263;44.726;10.396;2023-12-20T10:29:39;100244.63;;;12.27;61.54
60417;BME280;46263;44.726;10.396;2023-12-20T10:32:25;100241.81;;;12.27;62.62
60417;BME280;46263;44.726;10.396;2023-12-20T10:34:52;100229.31;;;12.28;63.40
60417;BME280;46263;44.726;10.396;2023-12-20T10:37:17;100226.19;;;12.31;63.58
60417;BME280;46263;44.726;10.396;2023-12-20T10:39:43;100221.13;;;12.43;63.31
60417;BME280;46263;44.726;10.396;2023-12-20T10:42:12;100212.84;;;12.50;62.64
60417;BME280;46263;44.726;10.396;2023-12-20T10:44:38;100207.56;;;12.47;61.64
60417;BME280;46263;44.726;10.396;2023-12-20T10:47:05;100207.88;;;12.43;62.28
60417;BME280;46263;44.726;10.396;2023-12-20T10:49:31;100208.63;;;12.44;62.31
60417;BME280;46263;44.726;10.396;2023-12-20T10:51:59;100210.13;;;12.45;61.47
60417;BME280;46263;44.726;10.396;2023-12-20T10:54:27;100212.91;;;12.58;60.60
60417;BME280;46263;44.726;10.396;2023-12-20T10:56:53;100208.16;;;12.66;60.84
60417;BME280;46263;44.726;10.396;2023-12-20T10:59:19;100208.50;;;12.75;61.04
60417;BME280;46263;44.726;10.396;2023-12-20T11:01:48;100206.66;;;12.77;60.78
60417;BME280;46263;44.726;10.396;2023-12-20T11:04:19;100207.41;;;12.78;61.46
60417;BME280;46263;44.726;10.396;2023-12-20T11:06:51;100206.44;;;12.75;61.33
60417;BME280;46263;44.726;10.396;2023-12-20T11:12:12;100197.06;;;12.73;62.75
60417;BME280;46263;44.726;10.396;2023-12-20T11:14:46;100206.25;;;12.61;63.90
60417;BME280;46263;44.726;10.396;2023-12-20T11:17:12;100197.31;;;12.49;65.54
60417;BME280;46263;44.726;10.396;2023-12-20T11:22:30;100214.69;;;12.48;67.75
60417;BME280;46263;44.726;10.396;2023-12-20T11:25:08;100200.97;;;12.57;68.53
60417;BME280;46263;44.726;10.396;2023-12-20T11:27:34;100207.88;;;12.56;71.13
60417;BME280;46263;44.726;10.396;2023-12-20T11:30:03;100206.31;;;12.68;70.70
60417;BME280;46263;44.726;10.396;2023-12-20T11:32:31;100205.56;;;12.80;71.67
60417;BME280;46263;44.726;10.396;2023-12-20T11:35:00;100186.19;;;12.70;70.06
60417;BME280;46263;44.726;10.396;2023-12-20T11:37:30;100175.38;;;12.73;69.27
60417;BME280;46263;44.726;10.396;2023-12-20T11:40:12;100180.25;;;12.73;68.42
60417;BME280;46263;44.726;10.396;2023-12-20T11:42:42;100192.97;;;12.74;66.87
60417;BME280;46263;44.726;10.396;2023-12-20T11:45:09;100185.06;;;12.72;66.46
60417;BME280;46263;44.726;10.396;2023-12-20T11:47:35;100192.97;;;12.74;67.55
60417;BME280;46263;44.726;10.396;2023-12-20T11:50:01;100187.13;;;12.72;67.75
60417;BME280;46263;44.726;10.396;2023-12-20T11:52:29;100184.00;;;12.75;67.21
60417;BME280;46263;44.726;10.396;2023-12-20T11:54:55;100187.56;;;12.76;67.45
60417;BME280;46263;44.726;10.396;2023-12-20T11:57:20;100186.25;;;12.77;66.80
60417;BME280;46263;44.726;10.396;2023-12-20T11:59:46;100186.06;;;12.75;67.05
60417;BME280;46263;44.726;10.396;2023-12-20T12:02:12;100181.25;;;12.37;68.06
60417;BME280;46263;44.726;10.396;2023-12-20T12:04:37;100178.75;;;12.20;69.36
60417;BME280;46263;44.726;10.396;2023-12-20T12:07:03;100168.88;;;12.19;69.46
60417;BME280;46263;44.726;10.396;2023-12-20T12:09:28;100168.41;;;12.28;69.36
60417;BME280;46263;44.726;10.396;2023-12-20T12:11:54;100168.19;;;12.39;69.87
60417;BME280;46263;44.726;10.396;2023-12-20T12:14:20;100166.69;;;12.38;70.57
60417;BME280;46263;44.726;10.396;2023-12-20T12:16:46;100168.31;;;12.47;69.49
60417;BME280;46263;44.726;10.396;2023-12-20T12:19:25;100171.13;;;12.47;69.30
60417;BME280;46263;44.726;10.396;2023-12-20T12:22:12;100168.22;;;12.13;70.28
60417;BME280;46263;44.726;10.396;2023-12-20T12:24:46;100156.78;;;12.24;70.08
60417;BME280;46263;44.726;10.396;2023-12-20T12:27:15;100157.72;;;12.40;68.62
60417;BME280;46263;44.726;10.396;2023-12-20T12:29:41;100170.56;;;12.48;66.98
60417;BME280;46263;44.726;10.396;2023-12-20T12:32:25;100172.16;;;12.57;65.88
60417;BME280;46263;44.726;10.396;2023-12-20T12:34:50;100173.69;;;12.58;65.23
60417;BME280;46263;44.726;10.396;2023-12-20T12:37:15;100165.25;;;12.58;65.14
60417;BME280;46263;44.726;10.396;2023-12-20T12:39:41;100166.56;;;12.57;65.34
60417;BME280;46263;44.726;10.396;2023-12-20T12:42:06;100162.06;;;12.28;66.58
60417;BME280;46263;44.726;10.396;2023-12-20T12:44:32;100150.53;;;12.05;67.94
60417;BME280;46263;44.726;10.396;2023-12-20T12:46:57;100145.78;;;12.13;66.90
60417;BME280;46263;44.726;10.396;2023-12-20T12:49:22;100133.84;;;12.26;66.96
60417;BME280;46263;44.726;10.396;2023-12-20T12:51:48;100128.63;;;12.43;67.44